Time;durP1;ratioP1;P1;durP2;ratioP2;P2;SDS_P1;SDS_P2;PMS_P1;PMS_P2;Temp;Humidity;BMP_temperature;BMP_pressure;BME280_temperature;BME280_humidity;BME280_pressure;Samples;Min_cycle;Max_cycle;Signal;HPM_P1;HPM_P2
2023/10/11 00:01:34;;;;;;;;;55.00;43.00;;;;;9.48;100.00;100293.91;6314738;20;3622120;-43
2023/10/11 00:04:03;;;;;;;;;50.00;41.00;;;;;9.94;100.00;100291.69;6316762;20;2859750;-42
2023/10/11 00:06:33;;;;;;;;;46.00;37.00;;;;;9.94;100.00;100294.38;6283606;20;2856594;-43
2023/10/11 00:09:03;;;;;;;;;47.33;37.00;;;;;9.91;100.00;100291.84;6318780;20;3598283;-44
2023/10/11 00:11:33;;;;;;;;;43.67;37.00;;;;;9.48;100.00;100284.06;6284130;20;2864959;-43
2023/10/11 00:14:02;;;;;;;;;45.33;36.33;;;;;9.12;100.00;100286.66;6318252;20;3598185;-43
2023/10/11 00:16:35;;;;;;;;;42.50;37.00;;;;;9.30;100.00;100272.41;6284244;20;2852306;-43
2023/10/11 00:19:09;;;;;;;;;41.00;34.00;;;;;9.59;100.00;100270.16;6286368;20;2850401;-43
2023/10/11 00:21:42;;;;;;;;;47.00;36.00;;;;;9.19;100.00;100269.38;6285128;20;3473242;-43
2023/10/11 00:24:11;;;;;;;;;50.33;39.33;;;;;9.62;100.00;100264.63;6315996;20;2867993;-42
2023/10/11 00:26:40;;;;;;;;;50.50;40.50;;;;;9.72;100.00;100268.63;6314018;20;2867983;-42
2023/10/11 00:29:11;;;;;;;;;50.00;40.00;;;;;10.00;100.00;100259.19;6280956;20;2847298;-43
2023/10/11 00:31:41;;;;;;;;;47.33;40.67;;;;;10.28;100.00;100262.25;6285565;20;2863818;-42
2023/10/11 00:34:12;;;;;;;;;48.00;40.00;;;;;10.39;100.00;100252.78;6316828;20;2854501;-42
2023/10/11 00:36:45;;;;;;;;;52.00;40.33;;;;;10.41;100.00;100248.22;6284552;20;2855489;-45
2023/10/11 00:39:18;;;;;;;;;48.33;38.67;;;;;10.58;100.00;100250.88;6314658;20;2860887;-43
2023/10/11 00:41:48;;;;;;;;;39.00;34.33;;;;;10.44;100.00;100243.53;6318906;20;3573251;-43
2023/10/11 00:44:20;;;;;;;;;44.00;36.50;;;;;9.88;100.00;100245.47;6315503;20;2848254;-43
2023/10/11 00:49:36;;;;;;;;;44.00;35.00;;;;;9.58;100.00;100246.94;6284846;20;2863816;-43
2023/10/11 00:52:06;;;;;;;;;39.00;35.67;;;;;10.07;100.00;100245.41;6287944;20;3604427;-42
2023/10/11 00:54:43;;;;;;;;;34.00;32.50;;;;;10.14;100.00;100237.91;6284802;20;2845035;-43
2023/10/11 00:57:15;;;;;;;;;45.00;37.00;;;;;10.17;100.00;100236.91;6282922;20;3576293;-45
2023/10/11 00:59:45;;;;;;;;;42.33;32.00;;;;;10.13;100.00;100238.84;6280131;20;3632551;-44
2023/10/11 01:02:14;;;;;;;;;38.00;32.67;;;;;9.55;100.00;100239.06;6318355;20;3607561;-44
2023/10/11 01:04:44;;;;;;;;;42.00;34.33;;;;;9.50;100.00;100238.41;6282861;20;2860732;-44
2023/10/11 01:07:13;;;;;;;;;38.00;34.33;;;;;9.28;100.00;100230.53;6313636;20;3601432;-43
2023/10/11 01:09:43;;;;;;;;;37.00;33.33;;;;;9.12;100.00;100238.44;6283432;20;2856544;-42
2023/10/11 01:12:13;;;;;;;;;46.33;37.33;;;;;9.01;100.00;100238.94;6315943;20;2857699;-44
2023/10/11 01:14:56;;;;;;;;;43.67;36.33;;;;;8.79;100.00;100239.94;6317369;20;3580465;-42
2023/10/11 01:17:34;;;;;;;;;44.67;38.00;;;;;9.39;100.00;100236.25;6281143;20;2847257;-43
2023/10/11 01:20:13;;;;;;;;;47.00;38.67;;;;;9.36;100.00;100231.03;6319601;20;3604444;-43
2023/10/11 01:22:44;;;;;;;;;47.33;36.00;;;;;9.16;100.00;100242.69;6282060;20;2854956;-43
2023/10/11 01:25:18;;;;;;;;;41.00;35.67;;;;;9.47;100.00;100241.25;6317115;20;3582985;-42
2023/10/11 01:27:48;;;;;;;;;48.50;38.00;;;;;9.29;100.00;100233.13;6280894;20;2851396;-42
2023/10/11 01:30:17;;;;;;;;;41.50;33.00;;;;;9.37;100.00;100236.34;6283940;20;2873219;-42
2023/10/11 01:32:47;;;;;;;;;47.00;37.00;;;;;9.52;100.00;100239.22;6283250;20;2857563;-43
2023/10/11 01:35:20;;;;;;;;;50.33;37.67;;;;;9.41;100.00;100245.97;6281985;20;2865024;-42
2023/10/11 01:37:55;;;;;;;;;46.33;34.67;;;;;9.12;100.00;100250.00;6314444;20;3631966;-43
2023/10/11 01:40:24;;;;;;;;;41.33;33.33;;;;;9.08;100.00;100248.41;6315137;20;3591280;-42
2023/10/11 01:42:54;;;;;;;;;39.67;36.00;;;;;8.85;100.00;100249.47;6281707;20;2859778;-42
2023/10/11 01:45:25;;;;;;;;;41.67;34.33;;;;;8.73;100.00;100252.69;6315740;20;3609618;-43
2023/10/11 01:47:56;;;;;;;;;44.50;37.00;;;;;8.76;100.00;100247.22;6282941;20;2844068;-42
2023/10/11 01:50:28;;;;;;;;;37.00;33.67;;;;;8.85;100.00;100257.53;6281495;20;2852300;-42
2023/10/11 01:52:57;;;;;;;;;35.33;33.33;;;;;8.89;100.00;100256.41;6313249;20;3597948;-44
2023/10/11 01:55:26;;;;;;;;;45.00;37.00;;;;;8.72;100.00;100253.66;6281803;20;3608620;-43
2023/10/11 01:57:55;;;;;;;;;36.33;34.00;;;;;8.71;100.00;100249.22;6318061;20;3609613;-45
2023/10/11 02:00:29;;;;;;;;;39.33;34.33;;;;;8.90;100.00;100251.94;6282429;20;2864931;-45
2023/10/11 02:02:58;;;;;;;;;47.00;37.67;;;;;8.75;100.00;100257.06;6313466;20;3601278;-46
2023/10/11 02:05:31;;;;;;;;;36.00;34.00;;;;;8.83;100.00;100256.72;6279705;20;2851439;-47
2023/10/11 02:08:04;;;;;;;;;41.67;33.00;;;;;8.93;100.00;100258.03;6280563;20;3621059;-43
2023/10/11 02:10:36;;;;;;;;;40.67;34.33;;;;;8.75;100.00;100257.06;6318568;20;3606569;-42
2023/10/11 02:13:06;;;;;;;;;39.33;32.00;;;;;8.71;100.00;100265.28;6287326;20;3613783;-41
2023/10/11 02:15:35;;;;;;;;;35.67;32.33;;;;;8.63;100.00;100252.25;6283320;20;3590948;-44
2023/10/11 02:18:08;;;;;;;;;41.33;36.00;;;;;8.83;100.00;100253.16;6283441;20;3620021;-42
2023/10/11 02:20:44;;;;;;;;;35.67;32.67;;;;;8.94;100.00;100253.53;6321186;20;3598196;-42
2023/10/11 02:23:13;;;;;;;;;38.33;34.00;;;;;8.59;100.00;100256.00;6300099;20;3598219;-41
2023/10/11 02:25:43;;;;;;;;;39.67;32.67;;;;;8.21;100.00;100252.28;6285117;20;2864909;-42
2023/10/11 02:28:14;;;;;;;;;36.33;34.00;;;;;8.41;100.00;100249.66;6320379;20;3604570;-43
2023/10/11 02:30:44;;;;;;;;;38.33;34.00;;;;;8.46;100.00;100254.81;6285994;20;3613809;-42
2023/10/11 02:33:13;;;;;;;;;39.67;35.00;;;;;8.66;100.00;100256.59;6320034;20;3610693;-42
2023/10/11 02:35:53;;;;;;;;;41.33;33.33;;;;;8.86;100.00;100248.53;6286966;20;2873256;-44
2023/10/11 02:38:25;;;;;;;;;39.67;33.00;;;;;9.15;100.00;100257.03;6319903;20;3614867;-42
2023/10/11 02:40:55;;;;;;;;;37.67;33.00;;;;;9.28;100.00;100258.19;6284303;20;2866974;-43
2023/10/11 02:43:26;;;;;;;;;39.33;32.33;;;;;9.00;100.00;100256.81;6319796;20;3614933;-43
2023/10/11 02:45:59;;;;;;;;;37.67;33.67;;;;;8.74;100.00;100259.78;6283365;20;3607537;-41
2023/10/11 02:48:28;;;;;;;;;39.33;35.00;;;;;9.09;100.00;100268.06;6320532;20;3589176;-43
2023/10/11 02:50:58;;;;;;;;;41.50;35.00;;;;;9.01;100.00;100274.63;6283989;20;2855590;-42
2023/10/11 02:53:28;;;;;;;;;45.67;33.00;;;;;8.86;100.00;100271.78;6284378;20;3636818;-41
2023/10/11 02:55:57;;;;;;;;;39.33;32.33;;;;;8.52;100.00;100276.81;6320003;20;3594018;-41
2023/10/11 02:58:31;;;;;;;;;40.67;32.33;;;;;8.64;100.00;100274.53;6282817;20;2860401;-42
2023/10/11 03:01:04;;;;;;;;;38.33;32.67;;;;;8.81;100.00;100277.31;6318804;20;3602343;-42
2023/10/11 03:03:49;;;;;;;;;40.67;32.33;;;;;8.38;100.00;100273.84;6287538;20;2868044;-42
2023/10/11 03:06:18;;;;;;;;;41.67;34.00;;;;;8.22;100.00;100267.41;6322982;20;3606515;-41
2023/10/11 03:08:51;;;;;;;;;46.00;35.00;;;;;8.39;100.00;100275.59;6289531;20;3612850;-42
2023/10/11 03:11:19;;;;;;;;;21.50;16.00;;;;;8.33;100.00;100271.34;6288357;20;2819047;-42
2023/10/11 03:13:49;;;;;;;;;43.33;33.33;;;;;8.06;100.00;100268.06;6286739;20;2869167;-41
2023/10/11 03:16:18;;;;;;;;;42.67;34.00;;;;;8.01;100.00;100267.38;6317908;20;3602349;-43
2023/10/11 03:18:50;;;;;;;;;38.00;34.33;;;;;8.20;100.00;100270.13;6286498;20;2858729;-42
2023/10/11 03:21:19;;;;;;;;;40.67;35.00;;;;;8.09;100.00;100267.91;6318450;20;3577346;-42
2023/10/11 03:23:55;;;;;;;;;39.33;32.00;;;;;8.11;100.00;100275.88;6315446;20;3604419;-42
2023/10/11 03:29:04;;;;;;;;;39.33;35.67;;;;;8.00;100.00;100267.41;6316047;20;3605462;-42
2023/10/11 03:31:40;;;;;;;;;40.33;34.33;;;;;8.04;100.00;100272.59;6287928;20;2863886;-42
2023/10/11 03:34:14;;;;;;;;;36.00;32.00;;;;;8.31;100.00;100275.03;6318254;20;2865984;-44
2023/10/11 03:36:52;;;;;;;;;42.33;32.00;;;;;8.45;100.00;100270.00;6317962;20;3603443;-43
2023/10/11 03:44:45;;;;;;;;;36.33;32.00;;;;;8.67;100.00;100275.28;6318051;20;3592031;-42
2023/10/11 03:47:15;;;;;;;;;45.50;37.00;;;;;8.41;100.00;100284.44;6281621;20;2856818;-43
2023/10/11 03:49:51;;;;;;;;;42.67;34.33;;;;;8.72;100.00;100283.97;6284655;20;3607926;-41
2023/10/11 03:52:24;;;;;;;;;47.67;39.00;;;;;8.84;100.00;100287.03;6315607;20;2850369;-42
2023/10/11 03:55:04;;;;;;;;;59.67;46.33;;;;;8.78;100.00;100281.00;6315582;20;3636710;-43
2023/10/11 03:57:36;;;;;;;;;67.33;46.67;;;;;8.72;100.00;100283.97;6316627;20;3655503;-44
2023/10/11 04:00:25;;;;;;;;;64.00;48.00;;;;;8.79;100.00;100271.16;6279222;20;3639993;-45
2023/10/11 04:03:01;;;;;;;;;56.67;46.33;;;;;8.63;100.00;100264.75;6312438;20;3625606;-42
2023/10/11 04:05:36;;;;;;;;;49.50;40.00;;;;;8.88;100.00;100252.00;6310853;20;2452390;-43
2023/10/11 04:08:06;;;;;;;;;45.00;34.00;;;;;8.83;100.00;100259.38;6287105;20;3620132;-42
2023/10/11 04:10:46;;;;;;;;;46.50;37.50;;;;;9.17;100.00;100257.84;6281789;20;2489864;-43
2023/10/11 04:13:18;;;;;;;;;46.33;37.67;;;;;9.26;100.00;100257.41;6283955;20;2853504;-42
2023/10/11 04:15:49;;;;;;;;;51.00;42.00;;;;;9.07;100.00;100249.34;6314418;20;2749249;-41
2023/10/11 04:23:39;;;;;;;;;58.00;44.00;;;;;9.32;100.00;100266.97;6315253;20;3616043;-42
2023/10/11 04:26:22;;;;;;;;;45.50;38.00;;;;;9.49;100.00;100268.84;6313279;20;2848264;-43
2023/10/11 04:28:52;;;;;;;;;41.00;36.00;;;;;8.86;100.00;100264.59;6284509;20;2840987;-42
2023/10/11 04:31:31;;;;;;;;;43.67;35.33;;;;;9.16;100.00;100261.44;6283482;20;2851395;-42
2023/10/11 04:34:00;;;;;;;;;38.33;33.00;;;;;9.15;100.00;100270.44;6315807;20;3597129;-42
2023/10/11 04:36:29;;;;;;;;;35.33;31.67;;;;;9.34;100.00;100279.34;6283117;20;2847184;-43
2023/10/11 04:39:13;;;;;;;;;41.33;29.67;;;;;9.20;100.00;100263.06;6319497;20;3630450;-42
2023/10/11 04:41:52;;;;;;;;;31.00;28.33;;;;;9.51;100.00;100275.03;6286460;20;3592114;-45
2023/10/11 04:44:22;;;;;;;;;34.50;30.50;;;;;9.25;100.00;100277.09;6280235;20;2844182;-43
2023/10/11 04:46:57;;;;;;;;;40.67;33.67;;;;;9.46;100.00;100269.88;6281613;20;2867088;-42
2023/10/11 04:49:30;;;;;;;;;40.33;33.67;;;;;8.94;100.00;100262.44;6319272;20;3617975;-41
2023/10/11 04:52:00;;;;;;;;;38.00;33.33;;;;;9.40;100.00;100276.41;6283158;20;2849254;-42
2023/10/11 04:54:42;;;;;;;;;43.00;31.33;;;;;9.47;100.00;100278.78;6316121;20;3625259;-45
2023/10/11 04:57:17;;;;;;;;;41.33;33.33;;;;;9.20;100.00;100279.13;6281339;20;2851424;-41
2023/10/11 04:59:47;;;;;;;;;37.67;31.00;;;;;9.01;100.00;100279.97;6313976;20;3600243;-42
2023/10/11 05:02:22;;;;;;;;;37.00;34.00;;;;;9.44;100.00;100277.97;6281675;20;2859799;-41
2023/10/11 05:04:53;;;;;;;;;37.00;33.50;;;;;9.54;100.00;100280.22;6315612;20;2855532;-41
2023/10/11 05:07:22;;;;;;;;;40.67;34.33;;;;;9.40;100.00;100287.13;6290536;20;3584672;-40
2023/10/11 05:09:59;;;;;;;;;43.50;36.00;;;;;9.63;100.00;100279.78;6316097;20;2846130;-41
2023/10/11 05:12:28;;;;;;;;;39.67;34.67;;;;;9.87;100.00;100281.28;6286331;20;3583666;-41
2023/10/11 05:15:01;;;;;;;;;40.67;34.33;;;;;10.12;100.00;100285.41;6282536;20;2859667;-41
2023/10/11 05:17:38;;;;;;;;;48.00;39.00;;;;;10.09;100.00;100277.53;6315453;20;2862937;-43
2023/10/11 05:31:06;;;;;;;;;48.67;39.67;;;;;10.25;100.00;100283.84;6313663;20;2855476;-42
2023/10/11 05:33:57;;;;;;;;;57.00;45.00;;;;;10.29;100.00;100292.63;6314015;20;2879617;-41
2023/10/11 05:53:15;;;;;;;;;44.67;36.33;;;;;10.52;100.00;100300.38;6321507;20;3581547;-42
2023/10/11 05:55:44;;;;;;;;;46.00;37.67;;;;;9.91;100.00;100308.81;6288668;20;2860864;-42
2023/10/11 05:58:13;;;;;;;;;39.00;34.50;;;;;9.83;100.00;100319.91;6319175;20;2847207;-41
2023/10/11 06:00:49;;;;;;;;;44.50;36.00;;;;;10.23;100.00;100326.00;6290521;20;2849389;-42
2023/10/11 06:03:20;;;;;;;;;44.67;36.00;;;;;10.07;100.00;100325.88;6287477;20;2839936;-41
2023/10/11 06:05:51;;;;;;;;;41.33;35.00;;;;;10.13;100.00;100322.03;6321406;20;2860685;-42
2023/10/11 06:08:24;;;;;;;;;40.67;32.67;;;;;10.30;100.00;100318.56;6318500;20;2854446;-42
2023/10/11 06:10:55;;;;;;;;;154.25;133.50;;;;;10.75;100.00;100309.94;6319905;20;3740060;-42
2023/10/11 06:13:25;;;;;;;;;44.33;36.33;;;;;10.59;100.00;100306.31;6286377;20;3607754;-43
2023/10/11 06:16:01;;;;;;;;;45.00;34.67;;;;;10.49;100.00;100315.78;6318577;20;2856795;-42
2023/10/11 06:18:39;;;;;;;;;43.00;36.00;;;;;10.23;100.00;100330.50;6322834;20;3602280;-43
2023/10/11 06:24:03;;;;;;;;;45.67;36.33;;;;;10.35;100.00;100323.66;6325231;20;3623178;-45
2023/10/11 06:29:15;;;;;;;;;49.33;40.67;;;;;10.38;100.00;100331.59;6319561;20;2869114;-42
2023/10/11 06:31:45;;;;;;;;;52.33;40.33;;;;;10.45;100.00;100327.63;6319542;20;3615864;-43
2023/10/11 06:36:48;;;;;;;;;74.00;54.00;;;;;10.75;100.00;100334.13;6316832;20;3612856;-42
2023/10/11 06:39:34;;;;;;;;;54.33;43.67;;;;;10.73;100.00;100341.38;6316497;20;2859657;-42
2023/10/11 06:42:31;;;;;;;;;55.33;42.00;;;;;10.65;100.00;100348.97;6314939;20;3626469;-42
2023/10/11 06:45:05;;;;;;;;;53.67;42.00;;;;;11.24;100.00;100340.53;6320762;20;3621223;-41
2023/10/11 06:47:35;;;;;;;;;54.67;42.33;;;;;10.79;100.00;100344.69;6286840;20;3621215;-42
2023/10/11 06:50:12;;;;;;;;;52.67;40.67;;;;;11.36;100.00;100348.81;6318874;20;3623190;-42
2023/10/11 06:52:45;;;;;;;;;57.33;43.00;;;;;11.39;100.00;100351.31;6314983;20;3608700;-42
2023/10/11 06:55:22;;;;;;;;;52.67;41.00;;;;;11.53;100.00;100350.59;6315396;20;2858680;-41
2023/10/11 06:57:56;;;;;;;;;57.33;43.33;;;;;11.20;100.00;100351.44;6319139;20;3653412;-41
2023/10/11 07:00:29;;;;;;;;;54.00;41.33;;;;;11.86;100.00;100344.31;6285193;20;3630569;-41
2023/10/11 07:03:07;;;;;;;;;52.67;42.33;;;;;11.77;100.00;100345.66;6317050;20;3600239;-41
2023/10/11 07:05:45;;;;;;;;;56.00;43.00;;;;;11.87;100.00;100340.66;6319127;20;3611735;-41
2023/10/11 07:08:20;;;;;;;;;53.33;42.00;;;;;11.90;100.00;100340.50;6317152;20;3615835;-41
2023/10/11 07:11:10;;;;;;;;;53.67;40.67;;;;;11.85;100.00;100347.94;6319969;20;3607540;-42
2023/10/11 07:13:49;;;;;;;;;57.67;43.67;;;;;12.11;100.00;100350.97;6283574;20;3639998;-41
2023/10/11 07:16:22;;;;;;;;;53.00;40.00;;;;;12.33;100.00;100354.19;6316764;20;3630479;-41
2023/10/11 07:18:54;;;;;;;;;51.67;39.67;;;;;11.97;100.00;100352.63;6319021;20;3622147;-41
2023/10/11 07:24:32;;;;;;;;;58.25;44.00;;;;;12.54;100.00;100351.19;6318639;20;3636700;-41
2023/10/11 07:27:13;;;;;;;;;62.67;46.33;;;;;12.57;100.00;100351.00;6316272;20;3646096;-41
2023/10/11 07:29:45;;;;;;;;;57.33;43.00;;;;;12.66;100.00;100350.44;6316870;20;3648308;-42
2023/10/11 07:32:18;;;;;;;;;53.00;44.00;;;;;13.30;100.00;100357.34;6318604;20;3627445;-41
2023/10/11 07:34:51;;;;;;;;;55.75;42.50;;;;;13.54;99.39;100356.78;6287274;20;3627353;-42
2023/10/11 07:37:26;;;;;;;;;69.67;54.33;;;;;13.99;97.67;100357.50;6316013;20;3637749;-41
2023/10/11 07:40:00;;;;;;;;;55.33;44.00;;;;;13.80;97.78;100356.00;6319484;20;3616968;-45
2023/10/11 07:42:37;;;;;;;;;53.33;42.00;;;;;14.16;96.41;100361.78;6289751;20;3623164;-43
2023/10/11 07:45:12;;;;;;;;;56.25;42.50;;;;;13.94;97.63;100359.63;6285115;20;4389796;-42
2023/10/11 07:47:45;;;;;;;;;57.50;43.00;;;;;14.02;97.35;100354.59;6314519;20;3636863;-43
2023/10/11 07:50:19;;;;;;;;;49.33;41.33;;;;;14.26;96.64;100357.50;6321025;20;3605555;-41
2023/10/11 07:52:51;;;;;;;;;55.33;43.67;;;;;14.73;95.87;100355.34;6280834;20;3621113;-41
2023/10/11 07:55:24;;;;;;;;;52.67;41.67;;;;;14.41;93.78;100353.78;6318766;20;3611743;-42
2023/10/11 07:57:59;;;;;;;;;58.67;48.33;;;;;15.84;90.27;100359.28;6288463;20;3617972;-41
2023/10/11 08:00:30;;;;;;;;;56.33;41.67;;;;;14.40;93.84;100353.88;6282573;20;3629433;-41
2023/10/11 08:03:03;;;;;;;;;47.33;37.67;;;;;15.38;93.88;100355.28;6284496;20;3597202;-41
2023/10/11 08:05:37;;;;;;;;;51.67;39.00;;;;;16.26;88.92;100348.97;6317786;20;3623268;-42
2023/10/11 08:08:06;;;;;;;;;48.00;40.00;;;;;16.75;87.31;100346.13;6285953;20;2847242;-41
2023/10/11 08:10:44;;;;;;;;;52.50;39.25;;;;;16.39;86.77;100350.63;6315481;20;3635838;-43
2023/10/11 08:13:26;;;;;;;;;50.67;42.00;;;;;16.09;91.38;100342.06;6320041;20;3602389;-41
2023/10/11 08:15:57;;;;;;;;;46.33;36.33;;;;;16.38;87.67;100346.19;6282952;20;3610780;-42
2023/10/11 08:18:26;;;;;;;;;48.67;38.67;;;;;17.60;86.06;100353.09;6318371;20;3605499;-41
2023/10/11 08:20:57;;;;;;;;;48.67;38.67;;;;;17.32;86.80;100356.16;6285253;20;3621143;-41
2023/10/11 08:23:29;;;;;;;;;40.00;34.00;;;;;17.96;84.51;100360.16;6316868;20;3601353;-42
2023/10/11 08:26:05;;;;;;;;;40.33;32.67;;;;;18.32;82.93;100360.81;6286328;20;3637794;-41
2023/10/11 08:28:36;;;;;;;;;44.00;36.33;;;;;16.44;89.33;100362.00;6282213;20;2845242;-41
2023/10/11 08:31:05;;;;;;;;;50.33;38.00;;;;;16.12;92.18;100352.69;6316745;20;3616978;-41
2023/10/11 08:33:34;;;;;;;;;46.67;37.33;;;;;16.68;91.97;100361.13;6283426;20;3590412;-44
2023/10/11 08:36:04;;;;;;;;;47.00;37.67;;;;;17.59;88.60;100360.38;6283806;20;3602433;-41
2023/10/11 08:38:35;;;;;;;;;39.00;30.00;;;;;17.38;89.84;100359.34;6317438;20;3600322;-42
2023/10/11 08:41:07;;;;;;;;;46.33;36.00;;;;;17.09;90.99;100348.97;6286964;20;3601481;-41
2023/10/11 08:43:37;;;;;;;;;31.25;28.50;;;;;17.02;91.63;100350.41;6289136;20;3610863;-41
2023/10/11 08:46:09;;;;;;;;;26.33;26.00;;;;;17.66;89.60;100348.00;6313388;20;3592032;-41
2023/10/11 08:48:38;;;;;;;;;20.00;19.50;;;;;17.88;88.77;100349.03;6279813;20;2828403;-42
2023/10/11 08:51:12;;;;;;;;;35.67;31.67;;;;;17.58;90.15;100344.19;6291623;20;3587811;-41
2023/10/11 08:53:54;;;;;;;;;27.33;24.67;;;;;17.57;90.15;100340.63;6284344;20;3596194;-42
2023/10/11 08:56:23;;;;;;;;;34.00;29.67;;;;;18.77;85.99;100338.91;6317730;20;3610707;-43
2023/10/11 08:58:53;;;;;;;;;29.67;28.67;;;;;18.64;84.78;100334.50;6284892;20;3602358;-42
2023/10/11 09:01:24;;;;;;;;;24.67;22.67;;;;;19.04;84.64;100347.44;6284420;20;3577348;-41
2023/10/11 09:04:27;;;;;;;;;22.00;21.50;;;;;18.81;84.79;100343.09;6285125;20;2832763;-41
2023/10/11 09:06:59;;;;;;;;;23.33;21.00;;;;;19.04;83.25;100342.00;6279692;20;2837880;-41
2023/10/11 09:09:40;;;;;;;;;22.67;20.00;;;;;19.28;83.20;100344.44;6313764;20;3572154;-40
2023/10/11 09:12:25;;;;;;;;;18.00;15.00;;;;;19.00;83.97;100340.50;6281191;20;2823240;-41
2023/10/11 09:15:00;;;;;;;;;19.50;19.50;;;;;19.93;80.00;100345.06;6281382;20;2827423;-41
2023/10/11 09:17:32;;;;;;;;;15.00;13.50;;;;;19.80;80.49;100344.44;6283088;20;2812752;-42
2023/10/11 09:20:23;;;;;;;;;14.33;12.67;;;;;20.23;78.41;100346.00;6282243;20;3510699;-42
2023/10/11 09:22:53;;;;;;;;;11.33;11.33;;;;;20.20;77.41;100342.69;6316340;20;3513807;-42
2023/10/11 09:25:24;;;;;;;;;13.00;11.00;;;;;20.20;77.03;100340.81;6312614;20;3509683;-45
2023/10/11 09:27:56;;;;;;;;;17.00;15.50;;;;;20.09;77.46;100340.91;6312148;20;2822154;-44
2023/10/11 09:30:27;;;;;;;;;14.00;13.67;;;;;20.04;77.56;100352.25;6287019;20;2805620;-47
2023/10/11 09:32:59;;;;;;;;;14.67;13.00;;;;;20.14;77.79;100342.25;6311957;20;3522199;-42
2023/10/11 09:35:29;;;;;;;;;12.67;11.67;;;;;20.44;75.58;100347.75;6316198;20;2794050;-42
2023/10/11 09:38:00;;;;;;;;;14.00;12.33;;;;;20.26;75.43;100345.69;6314042;20;2483642;-41
2023/10/11 09:40:33;;;;;;;;;14.00;11.33;;;;;20.68;74.28;100344.63;6314056;20;3517985;-41
2023/10/11 09:43:04;;;;;;;;;11.67;10.33;;;;;20.90;73.92;100341.59;6314431;20;3513820;-41
2023/10/11 09:45:43;;;;;;;;;11.67;11.67;;;;;20.39;73.67;100337.25;6318420;20;2793023;-42
2023/10/11 09:48:15;;;;;;;;;12.67;12.67;;;;;20.41;74.82;100342.59;6315713;20;2483625;-42
2023/10/11 09:50:44;;;;;;;;;12.00;9.00;;;;;20.66;74.19;100335.72;6314032;20;3497187;-42
2023/10/11 09:53:15;;;;;;;;;10.00;7.60;;;;;21.09;73.40;100343.47;6338082;20;2769029;-44
2023/10/11 09:56:09;;;;;;;;;12.00;11.00;;;;;21.04;72.26;100332.97;6276093;20;3510814;-41
2023/10/11 09:59:19;;;;;;;;;7.00;7.00;;;;;21.50;70.70;100346.84;6313442;20;2748205;-42
2023/10/11 10:02:12;;;;;;;;;9.00;6.80;;;;;21.04;70.87;100334.84;6333476;20;2748240;-43
2023/10/11 10:04:49;;;;;;;;;10.67;7.67;;;;;20.82;71.69;100334.13;6281954;20;2759696;-42
2023/10/11 10:10:16;;;;;;;;;10.67;8.33;;;;;20.41;71.75;100337.13;6311954;20;3495107;-41
2023/10/11 10:12:59;;;;;;;;;10.00;9.33;;;;;20.94;71.20;100332.13;6313077;20;3492076;-42
2023/10/11 10:15:33;;;;;;;;;7.33;7.33;;;;;20.87;70.71;100333.69;6321113;20;2742015;-42
2023/10/11 10:18:03;;;;;;;;;5.60;5.60;;;;;21.20;69.42;100331.50;6338869;20;2731678;-42
2023/10/11 10:20:43;;;;;;;;;10.33;9.00;;;;;21.07;69.51;100323.63;6316974;20;2763808;-42
2023/10/11 10:23:15;;;;;;;;;10.00;9.00;;;;;20.94;70.52;100323.94;6313441;20;2769037;-43
2023/10/11 10:26:11;;;;;;;;;13.67;11.33;;;;;21.01;69.91;100321.47;6312837;20;2792081;-45
2023/10/11 10:28:39;;;;;;;;;11.67;11.67;;;;;21.10;70.30;100312.41;6312362;20;3520049;-43
2023/10/11 10:31:19;;;;;;;;;12.00;10.67;;;;;21.40;69.96;100319.53;6300616;20;3518093;-43
2023/10/11 10:34:05;;;;;;;;;14.67;10.00;;;;;21.75;69.23;100314.34;6276571;20;3515984;-43
2023/10/11 10:36:37;;;;;;;;;10.00;10.00;;;;;21.51;68.41;100313.03;6306350;20;3505626;-42
2023/10/11 10:41:40;;;;;;;;;12.33;9.33;;;;;21.42;69.36;100300.28;6322814;20;2774675;-41
2023/10/11 10:44:19;;;;;;;;;13.00;9.67;;;;;21.30;69.18;100295.97;6315761;20;3507568;-40
2023/10/11 10:46:53;;;;;;;;;12.00;12.00;;;;;21.64;69.03;100299.91;6320478;20;3512905;-40
2023/10/11 10:49:42;;;;;;;;;12.00;9.00;;;;;21.64;69.02;100294.44;6315005;20;3484658;-41
2023/10/11 10:52:26;;;;;;;;;10.33;9.00;;;;;21.91;67.39;100300.91;6313848;20;2768069;-41
2023/10/11 10:55:01;;;;;;;;;8.00;7.00;;;;;21.72;66.38;100295.53;6314641;20;2744054;-42
2023/10/11 10:57:37;;;;;;;;;8.00;7.33;;;;;21.85;67.31;100291.47;6324420;20;2748176;-42
2023/10/11 11:00:23;;;;;;;;;9.00;9.00;;;;;21.69;67.17;100291.22;6316235;20;2746234;-41
2023/10/11 11:02:56;;;;;;;;;11.00;9.00;;;;;21.65;68.17;100289.84;6316955;20;2771202;-41
2023/10/11 11:05:29;;;;;;;;;10.00;10.00;;;;;21.69;67.82;100286.63;6315296;20;3509688;-41
2023/10/11 11:08:18;;;;;;;;;6.33;6.33;;;;;21.83;65.36;100276.22;6313230;20;2737780;-41
2023/10/11 11:11:19;;;;;;;;;9.80;8.60;;;;;22.10;65.98;100273.44;6338873;20;2765932;-41
2023/10/11 11:13:52;;;;;;;;;10.67;9.00;;;;;21.84;66.12;100264.25;6285822;20;3493005;-41
2023/10/11 11:16:29;;;;;;;;;8.00;8.00;;;;;22.47;64.58;100264.25;6317317;20;2756537;-41
2023/10/11 11:19:25;;;;;;;;;9.20;7.20;;;;;22.22;65.40;100262.28;6341954;20;2741980;-42
2023/10/11 11:22:12;;;;;;;;;9.00;9.00;;;;;21.91;64.92;100260.75;6292016;20;2748182;-42
2023/10/11 11:24:43;;;;;;;;;12.00;10.67;;;;;21.67;65.95;100258.59;6315296;20;3510741;-43
2023/10/11 11:27:27;;;;;;;;;12.00;10.00;;;;;21.93;65.50;100257.84;6313617;20;3504426;-44
2023/10/11 11:30:04;;;;;;;;;9.33;9.00;;;;;22.08;65.15;100250.84;6317471;20;2763858;-43
2023/10/11 11:32:41;;;;;;;;;12.00;12.00;;;;;22.37;63.41;100249.78;6321870;20;2786744;-46
2023/10/11 11:35:10;;;;;;;;;8.67;8.33;;;;;22.30;64.00;100241.38;6318263;20;2760651;-42
2023/10/11 11:38:02;;;;;;;;;12.00;9.67;;;;;22.25;64.07;100246.44;6319363;20;2790896;-42
2023/10/11 11:40:36;;;;;;;;;8.33;8.33;;;;;22.61;63.80;100242.81;6324546;20;2745080;-43
2023/10/11 11:43:05;;;;;;;;;11.00;9.67;;;;;22.48;63.89;100238.59;6317294;20;2782548;-42
2023/10/11 11:45:37;;;;;;;;;9.00;8.00;;;;;22.01;63.32;100236.09;6313329;20;2750289;-43
2023/10/11 11:48:06;;;;;;;;;9.00;9.00;;;;;21.89;64.63;100232.69;6321151;20;2749285;-44
2023/10/11 11:50:35;;;;;;;;;11.33;10.00;;;;;21.89;64.31;100231.84;6313729;20;3507601;-42
2023/10/11 11:53:05;;;;;;;;;9.67;9.33;;;;;22.21;63.16;100225.03;6321313;20;2757595;-44
2023/10/11 11:55:35;;;;;;;;;11.00;10.00;;;;;22.38;62.02;100226.91;6311455;20;2783628;-41
2023/10/11 11:58:10;;;;;;;;;8.00;7.67;;;;;22.51;62.29;100230.09;6321585;20;2750489;-42
2023/10/11 12:00:59;;;;;;;;;9.00;6.00;;;;;22.36;61.30;100220.72;6339688;20;2750306;-42
2023/10/11 12:03:29;;;;;;;;;10.33;9.00;;;;;22.95;60.13;100230.06;6289921;20;2777461;-42
2023/10/11 12:06:21;;;;;;;;;10.33;8.67;;;;;22.94;59.71;100233.84;6321748;20;2767469;-41
2023/10/11 12:09:02;;;;;;;;;8.00;7.00;;;;;22.76;59.60;100222.94;6322266;20;2752379;-42
2023/10/11 12:11:32;;;;;;;;;12.00;9.67;;;;;23.33;58.51;100219.72;6316209;20;3505598;-41
2023/10/11 12:14:04;;;;;;;;;10.33;9.00;;;;;22.92;59.92;100215.84;6312186;20;3490879;-41
2023/10/11 12:16:32;;;;;;;;;9.00;9.00;;;;;22.84;58.84;100219.38;6321287;20;2759651;-41
2023/10/11 12:19:01;;;;;;;;;8.00;7.33;;;;;22.65;59.48;100216.88;6318082;20;2739880;-43
2023/10/11 12:21:33;;;;;;;;;10.00;10.00;;;;;22.81;60.46;100211.50;6321083;20;2786734;-41
2023/10/11 12:24:10;;;;;;;;;10.67;10.67;;;;;22.69;59.98;100216.34;6314381;20;3520164;-42
2023/10/11 12:26:58;;;;;;;;;11.00;11.00;;;;;23.04;59.61;100217.34;6313067;20;3510733;-42